Time;durP1;ratioP1;P1;durP2;ratioP2;P2;SDS_P1;SDS_P2;PMS_P1;PMS_P2;Temp;Humidity;BMP_temperature;BMP_pressure;BME280_temperature;BME280_humidity;BME280_pressure;Samples;Min_cycle;Max_cycle;Signal;HPM_P1;HPM_P2
2022/01/12 00:01:05;;;;;;;82.93;30.35;;;3.60;99.90;;;;;;5055310;28;20037;-49
2022/01/12 00:03:34;;;;;;;72.65;29.30;;;3.60;99.90;;;;;;5055392;28;20043;-48
2022/01/12 00:06:01;;;;;;;88.43;29.85;;;3.70;99.90;;;;;;5053883;28;20383;-48
2022/01/12 00:08:27;;;;;;;78.43;31.02;;;3.60;99.90;;;;;;5055094;28;20041;-48
2022/01/12 00:10:56;;;;;;;81.32;30.00;;;3.80;99.90;;;;;;5055166;28;20508;-47
2022/01/12 00:13:22;;;;;;;88.55;29.58;;;3.80;99.90;;;;;;5055220;28;20073;-47
2022/01/12 00:15:47;;;;;;;92.63;31.08;;;3.80;99.90;;;;;;5054959;28;20117;-51
2022/01/12 00:18:13;;;;;;;88.25;30.15;;;3.60;99.90;;;;;;5070790;28;20039;-48
2022/01/12 00:20:39;;;;;;;90.53;31.10;;;3.60;99.90;;;;;;5074842;28;20033;-48
2022/01/12 00:23:05;;;;;;;84.32;29.80;;;3.60;99.90;;;;;;5074617;28;20086;-48
2022/01/12 00:25:34;;;;;;;94.60;31.55;;;3.80;99.90;;;;;;5073845;28;20044;-53
2022/01/12 00:33:28;;;;;;;118.05;30.83;;;3.80;99.90;;;;;;5074506;28;20109;-48
2022/01/12 00:35:56;;;;;;;94.38;29.98;;;3.70;99.90;;;;;;5074449;28;20477;-47
2022/01/12 00:38:25;;;;;;;89.38;29.80;;;3.80;99.90;;;;;;5074698;28;20528;-47
2022/01/12 00:40:53;;;;;;;91.55;30.27;;;3.70;99.90;;;;;;5074525;28;20037;-47
2022/01/12 00:43:21;;;;;;;102.95;30.50;;;3.80;99.90;;;;;;5074634;28;20052;-47
2022/01/12 00:45:48;;;;;;;130.23;31.55;;;3.70;99.90;;;;;;5074383;28;20051;-47
2022/01/12 00:48:15;;;;;;;114.38;30.20;;;3.80;99.90;;;;;;5074379;28;20119;-47
2022/01/12 00:50:42;;;;;;;106.75;29.17;;;3.90;99.90;;;;;;5058004;28;20037;-59
2022/01/12 00:53:08;;;;;;;91.38;29.17;;;3.90;99.90;;;;;;5053615;28;20513;-59
2022/01/12 00:55:36;;;;;;;94.35;28.27;;;3.80;99.90;;;;;;5054320;28;20045;-59
2022/01/12 00:58:02;;;;;;;97.65;30.95;;;3.80;99.90;;;;;;5054268;28;20044;-59
2022/01/12 01:00:28;;;;;;;167.18;33.22;;;3.90;99.90;;;;;;5054110;28;20033;-59
2022/01/12 01:02:55;;;;;;;102.40;28.45;;;3.80;99.90;;;;;;5052772;28;20377;-59
2022/01/12 01:05:22;;;;;;;150.05;32.25;;;3.80;99.90;;;;;;5054343;28;20453;-59
2022/01/12 01:07:49;;;;;;;115.60;31.05;;;3.90;99.90;;;;;;5053990;28;20037;-59
2022/01/12 01:10:26;;;;;;;102.15;28.48;;;3.90;99.90;;;;;;5052931;28;20052;-59
2022/01/12 01:12:52;;;;;;;130.60;29.33;;;3.90;99.90;;;;;;5053991;28;20041;-47
2022/01/12 01:15:27;;;;;;;123.40;28.63;;;3.90;99.90;;;;;;5053847;28;20041;-48
2022/01/12 01:26:05;;;;;;;158.20;28.88;;;3.70;99.90;;;;;;5073821;28;20091;-48
2022/01/12 01:28:31;;;;;;;136.75;29.65;;;3.70;99.90;;;;;;5073672;28;20496;-49
2022/01/12 01:30:56;;;;;;;164.57;30.48;;;3.80;99.90;;;;;;5073852;28;20040;-50
2022/01/12 01:33:22;;;;;;;138.98;29.70;;;3.70;99.90;;;;;;5055365;28;20390;-48
2022/01/12 01:35:54;;;;;;;103.63;28.90;;;3.70;99.90;;;;;;5073515;28;20032;-47
2022/01/12 01:38:20;;;;;;;94.83;25.93;;;3.80;99.90;;;;;;5073321;28;20044;-47
2022/01/12 01:40:46;;;;;;;172.73;30.17;;;3.80;99.90;;;;;;5073545;28;20259;-46
2022/01/12 01:43:25;;;;;;;154.07;29.70;;;3.80;99.90;;;;;;5073168;28;20055;-49
2022/01/12 01:54:04;;;;;;;202.65;31.65;;;3.80;99.90;;;;;;5053107;28;20052;-48
2022/01/12 01:56:31;;;;;;;182.25;31.70;;;3.80;99.90;;;;;;5052917;28;20417;-47
2022/01/12 01:58:57;;;;;;;149.60;29.55;;;3.80;99.90;;;;;;5051509;28;20033;-49
2022/01/12 02:01:23;;;;;;;217.70;33.25;;;3.70;99.90;;;;;;5053265;28;20379;-48
2022/01/12 02:03:49;;;;;;;194.05;32.50;;;3.80;99.90;;;;;;5053007;28;20036;-48
2022/01/12 02:06:16;;;;;;;127.93;29.15;;;3.80;99.90;;;;;;5052124;28;20048;-48
2022/01/12 02:08:42;;;;;;;107.38;29.10;;;3.90;99.90;;;;;;5052682;28;20049;-49
2022/01/12 02:11:07;;;;;;;124.57;29.70;;;3.90;99.90;;;;;;5052793;28;20428;-50
2022/01/12 02:13:33;;;;;;;98.43;27.75;;;3.80;99.90;;;;;;5051228;28;20045;-51
2022/01/12 02:15:59;;;;;;;94.72;27.50;;;3.90;99.90;;;;;;5052849;28;20120;-59
2022/01/12 02:40:32;;;;;;;82.18;26.60;;;4.00;99.90;;;;;;5050734;28;20516;-59
2022/01/12 02:51:29;;;;;;;74.05;24.45;;;4.00;99.90;;;;;;5053769;28;20048;-59
2022/01/12 02:53:43;;;;;;;68.38;25.00;;;4.00;99.90;;;;;;5051635;28;20052;-49
2022/01/12 02:56:29;;;;;;;72.30;23.45;;;3.90;99.90;;;;;;5052308;28;20039;-47
2022/01/12 02:58:58;;;;;;;72.28;25.70;;;3.90;99.90;;;;;;5052192;28;20424;-49
2022/01/12 03:03:55;;;;;;;67.18;24.17;;;3.80;99.90;;;;;;5052289;28;20041;-59
2022/01/12 03:06:26;;;;;;;62.15;22.10;;;3.80;99.90;;;;;;5051935;28;20044;-48
2022/01/12 03:08:53;;;;;;;71.60;23.25;;;3.60;99.90;;;;;;5051812;28;20045;-47
2022/01/12 03:11:20;;;;;;;65.30;22.63;;;3.60;99.90;;;;;;5051988;28;20041;-47
2022/01/12 03:13:47;;;;;;;74.97;22.42;;;3.50;99.90;;;;;;5051672;28;20056;-47
2022/01/12 03:16:15;;;;;;;61.78;21.30;;;3.40;99.90;;;;;;5052948;28;20076;-46
2022/01/12 03:18:46;;;;;;;90.20;21.55;;;3.50;99.90;;;;;;5078736;28;20044;-52
2022/01/12 03:21:13;;;;;;;55.70;21.38;;;3.40;99.90;;;;;;5078378;28;20048;-59
2022/01/12 03:23:39;;;;;;;51.67;19.50;;;3.40;99.90;;;;;;5078605;28;20044;-49
2022/01/12 03:26:06;;;;;;;53.80;21.17;;;3.40;99.90;;;;;;5077430;28;20044;-48
2022/01/12 03:28:33;;;;;;;54.30;19.70;;;3.20;99.90;;;;;;5078486;28;20055;-59
2022/01/12 03:31:19;;;;;;;64.15;20.38;;;3.20;99.90;;;;;;5078656;28;20045;-48
2022/01/12 03:38:57;;;;;;;52.17;18.20;;;3.20;99.90;;;;;;5078237;28;20048;-59
2022/01/12 03:41:28;;;;;;;55.42;17.55;;;3.30;99.90;;;;;;5078341;28;20033;-48
2022/01/12 03:43:55;;;;;;;51.42;18.98;;;3.20;99.90;;;;;;5078463;28;20511;-59
2022/01/12 03:46:25;;;;;;;48.33;17.88;;;3.10;99.90;;;;;;5078446;28;20075;-50
2022/01/12 03:48:51;;;;;;;42.05;17.70;;;3.00;99.90;;;;;;5077123;28;20067;-46
2022/01/12 03:51:17;;;;;;;44.65;18.05;;;3.10;99.90;;;;;;5058073;28;20095;-59
2022/01/12 03:53:42;;;;;;;43.40;15.70;;;3.00;99.90;;;;;;5058182;28;20040;-59
2022/01/12 03:56:08;;;;;;;39.13;15.65;;;2.90;99.90;;;;;;5058487;28;20040;-59
2022/01/12 03:58:34;;;;;;;41.85;15.95;;;2.80;99.90;;;;;;5058141;28;20029;-59
2022/01/12 04:01:00;;;;;;;35.00;15.50;;;2.80;99.90;;;;;;5058353;28;20037;-59
2022/01/12 04:03:27;;;;;;;40.80;15.20;;;2.70;99.90;;;;;;5058224;28;20397;-59
2022/01/12 04:08:37;;;;;;;30.67;14.02;;;2.80;99.90;;;;;;5058376;28;20109;-59
2022/01/12 04:11:03;;;;;;;28.40;14.20;;;2.80;99.90;;;;;;5058075;28;20040;-59
2022/01/12 04:13:31;;;;;;;41.47;17.40;;;2.70;99.90;;;;;;5058013;28;20041;-59
2022/01/12 04:16:00;;;;;;;57.53;17.75;;;2.80;99.90;;;;;;5056907;28;20041;-51
2022/01/12 04:18:26;;;;;;;57.15;18.25;;;2.70;99.90;;;;;;5076571;28;20036;-59
2022/01/12 04:20:51;;;;;;;40.72;15.80;;;2.70;99.90;;;;;;5077799;28;20396;-47
2022/01/12 04:23:19;;;;;;;41.83;16.70;;;2.60;99.90;;;;;;5078151;28;20045;-59
2022/01/12 04:25:47;;;;;;;35.67;14.00;;;2.60;99.90;;;;;;5078126;28;20044;-48
2022/01/12 04:28:14;;;;;;;40.95;14.95;;;2.60;99.90;;;;;;5075785;28;20045;-49
2022/01/12 04:30:40;;;;;;;39.78;14.82;;;2.60;99.90;;;;;;5074717;28;20044;-49
2022/01/12 04:33:06;;;;;;;41.55;15.93;;;2.60;99.90;;;;;;5074584;28;20036;-53
2022/01/12 04:35:36;;;;;;;32.58;14.68;;;2.70;99.90;;;;;;5074857;28;20055;-59
2022/01/12 04:38:03;;;;;;;31.92;13.65;;;2.50;99.90;;;;;;5074737;28;20037;-59
2022/01/12 04:40:29;;;;;;;33.85;13.82;;;2.50;99.90;;;;;;5074541;28;20043;-49
2022/01/12 04:42:56;;;;;;;38.50;14.48;;;2.50;99.90;;;;;;5074570;28;20052;-49
2022/01/12 04:50:19;;;;;;;61.58;13.35;;;2.50;99.90;;;;;;5060768;28;20049;-59
2022/01/12 04:52:45;;;;;;;90.80;15.20;;;2.50;99.90;;;;;;5054172;28;20496;-49
2022/01/12 04:55:11;;;;;;;52.35;12.48;;;2.60;99.90;;;;;;5054448;28;20127;-59
2022/01/12 04:57:36;;;;;;;31.17;11.25;;;2.50;99.90;;;;;;5054085;28;20187;-59
2022/01/12 05:00:13;;;;;;;24.67;9.75;;;2.50;99.90;;;;;;5054209;28;20111;-59
2022/01/12 05:09:06;;;;;;;33.40;10.80;;;2.50;99.90;;;;;;5054035;28;20103;-59
2022/01/12 05:13:47;;;;;;;76.60;12.70;;;2.50;99.90;;;;;;5053832;28;20425;-47
2022/01/12 05:16:13;;;;;;;200.15;18.25;;;2.60;99.90;;;;;;5054496;28;20040;-47
2022/01/12 05:18:41;;;;;;;170.30;18.02;;;2.50;99.90;;;;;;5072569;28;20036;-49
2022/01/12 05:21:08;;;;;;;120.10;14.93;;;2.40;99.90;;;;;;5073541;28;20100;-59
2022/01/12 05:23:34;;;;;;;96.60;14.88;;;2.50;99.90;;;;;;5073875;28;20048;-47
2022/01/12 05:26:00;;;;;;;157.55;16.40;;;2.40;99.90;;;;;;5073990;28;20039;-47
2022/01/12 05:28:27;;;;;;;101.15;13.40;;;2.40;99.90;;;;;;5073742;28;20032;-46
2022/01/12 05:30:54;;;;;;;113.40;14.43;;;2.40;99.90;;;;;;5073770;28;20044;-47
2022/01/12 05:33:25;;;;;;;51.28;10.48;;;2.30;99.90;;;;;;5073438;28;20051;-48
2022/01/12 05:35:55;;;;;;;72.93;11.88;;;2.30;99.90;;;;;;5073715;28;20040;-49
2022/01/12 05:38:22;;;;;;;68.35;11.98;;;2.30;99.90;;;;;;5073526;28;20040;-48
2022/01/12 05:40:53;;;;;;;93.93;13.45;;;2.30;99.90;;;;;;5073329;28;20450;-48
2022/01/12 05:43:28;;;;;;;107.28;13.65;;;2.30;99.90;;;;;;5073419;28;20074;-47
2022/01/12 05:45:55;;;;;;;89.35;13.10;;;2.40;99.90;;;;;;5073185;28;20115;-50
2022/01/12 05:50:49;;;;;;;67.35;11.02;;;2.40;99.90;;;;;;5055993;28;20138;-59
2022/01/12 05:53:16;;;;;;;43.20;9.98;;;2.20;99.90;;;;;;5053005;28;20056;-59
2022/01/12 05:55:43;;;;;;;29.35;8.80;;;2.20;99.90;;;;;;5053130;28;20045;-59
2022/01/12 05:58:09;;;;;;;35.95;9.18;;;2.30;99.90;;;;;;5053139;28;20043;-59
2022/01/12 06:00:36;;;;;;;24.98;7.38;;;2.20;99.90;;;;;;5052915;28;20123;-59
2022/01/12 06:03:01;;;;;;;45.05;8.52;;;2.20;99.90;;;;;;5053256;28;20049;-59
2022/01/12 06:05:28;;;;;;;55.13;9.68;;;2.30;99.90;;;;;;5052939;28;20440;-60
2022/01/12 06:07:54;;;;;;;100.07;12.98;;;2.40;99.90;;;;;;5053043;28;20040;-47
2022/01/12 06:10:22;;;;;;;75.95;10.73;;;2.20;99.90;;;;;;5052744;28;20091;-49
2022/01/12 06:12:52;;;;;;;42.03;8.45;;;2.20;99.90;;;;;;5052756;28;20045;-49
2022/01/12 06:15:18;;;;;;;35.28;7.97;;;2.20;99.90;;;;;;5052667;28;20047;-47
2022/01/12 06:17:43;;;;;;;30.10;7.25;;;2.10;99.90;;;;;;5065969;28;20124;-50
2022/01/12 06:20:09;;;;;;;38.95;7.57;;;2.00;99.90;;;;;;5072862;28;20115;-52
2022/01/12 06:22:36;;;;;;;44.95;8.07;;;2.10;99.90;;;;;;5072468;28;20082;-51
2022/01/12 06:25:06;;;;;;;52.83;8.52;;;2.00;99.90;;;;;;5072648;28;20090;-49
2022/01/12 06:27:33;;;;;;;71.65;9.05;;;2.10;99.90;;;;;;5071215;28;20048;-48
2022/01/12 06:32:29;;;;;;;85.90;9.68;;;2.00;99.90;;;;;;5072642;28;20052;-47
2022/01/12 06:34:55;;;;;;;72.15;8.48;;;2.00;99.90;;;;;;5072239;28;20071;-48
2022/01/12 06:37:20;;;;;;;62.72;8.05;;;2.10;99.90;;;;;;5071248;28;20063;-48
2022/01/12 06:39:46;;;;;;;68.85;8.45;;;1.90;99.90;;;;;;5072325;28;20079;-47
2022/01/12 06:42:12;;;;;;;133.38;11.07;;;1.90;99.90;;;;;;5072226;28;20472;-47
2022/01/12 06:44:37;;;;;;;126.57;10.18;;;1.80;99.90;;;;;;5072399;28;20135;-46
2022/01/12 06:47:04;;;;;;;58.90;6.82;;;1.80;99.90;;;;;;5072473;28;20048;-47
2022/01/12 06:49:30;;;;;;;75.28;8.18;;;1.80;99.90;;;;;;5065329;28;20497;-48
2022/01/12 06:51:59;;;;;;;72.28;8.50;;;1.80;99.90;;;;;;5050254;28;20041;-51
2022/01/12 06:54:25;;;;;;;74.40;8.50;;;1.70;99.90;;;;;;5052118;28;20049;-51
2022/01/12 06:56:50;;;;;;;77.10;8.70;;;1.80;99.90;;;;;;5052082;28;20055;-48
2022/01/12 06:59:16;;;;;;;74.35;8.73;;;1.70;99.90;;;;;;5052274;28;20041;-59
2022/01/12 07:01:42;;;;;;;94.20;9.10;;;1.70;99.90;;;;;;5052142;28;20048;-59
2022/01/12 07:04:08;;;;;;;118.88;10.05;;;1.80;99.90;;;;;;5051986;28;20040;-57
2022/01/12 07:06:34;;;;;;;100.13;9.40;;;1.70;99.90;;;;;;5052000;28;20040;-47
2022/01/12 07:09:00;;;;;;;78.80;9.00;;;1.70;99.90;;;;;;5052092;28;20045;-47
2022/01/12 07:11:26;;;;;;;68.43;7.40;;;1.70;99.90;;;;;;5051838;28;20048;-49
2022/01/12 07:13:52;;;;;;;39.92;6.85;;;1.70;99.90;;;;;;5033815;28;20049;-47
2022/01/12 07:16:17;;;;;;;73.00;8.57;;;1.70;99.90;;;;;;5053325;28;20393;-50
2022/01/12 07:18:43;;;;;;;58.25;8.95;;;1.70;99.90;;;;;;5070504;28;20040;-59
2022/01/12 07:21:08;;;;;;;87.93;9.88;;;1.70;99.90;;;;;;5070182;28;20037;-59
2022/01/12 07:23:34;;;;;;;52.70;8.27;;;1.70;99.90;;;;;;5070066;28;20303;-59
2022/01/12 07:26:00;;;;;;;69.00;9.55;;;1.50;99.90;;;;;;5070158;28;20455;-47
2022/01/12 07:28:26;;;;;;;52.97;8.65;;;1.60;99.90;;;;;;5070104;28;20052;-52
2022/01/12 07:30:52;;;;;;;59.22;8.73;;;1.60;99.90;;;;;;5070096;28;20036;-53
2022/01/12 07:33:18;;;;;;;86.35;9.43;;;1.50;99.90;;;;;;5070102;28;20051;-49
2022/01/12 07:35:44;;;;;;;101.75;11.48;;;1.60;99.90;;;;;;5070465;28;20116;-49
2022/01/12 07:38:10;;;;;;;47.03;7.65;;;1.50;99.90;;;;;;5070339;28;20427;-48
2022/01/12 07:40:36;;;;;;;116.07;11.98;;;1.60;99.90;;;;;;5070161;28;20473;-60
2022/01/12 07:43:03;;;;;;;58.53;8.73;;;1.50;99.90;;;;;;5070418;28;20401;-60
2022/01/12 07:45:29;;;;;;;47.17;7.50;;;1.50;99.90;;;;;;5070234;28;20052;-60
2022/01/12 07:47:55;;;;;;;99.90;10.85;;;1.60;99.90;;;;;;5069991;28;20119;-60
2022/01/12 07:50:20;;;;;;;102.47;10.10;;;1.40;99.90;;;;;;5056357;28;20041;-60
2022/01/12 07:52:46;;;;;;;91.50;11.32;;;1.50;99.90;;;;;;5049882;28;20037;-60
2022/01/12 07:55:12;;;;;;;55.30;8.90;;;1.50;99.90;;;;;;5049963;28;20043;-60
2022/01/12 07:57:38;;;;;;;61.85;9.90;;;1.40;99.90;;;;;;5050030;28;20037;-60
2022/01/12 08:00:05;;;;;;;80.68;10.30;;;1.40;99.90;;;;;;5050081;28;20033;-60
2022/01/12 08:02:31;;;;;;;64.32;8.80;;;1.40;99.90;;;;;;5049837;28;20052;-60
2022/01/12 08:04:57;;;;;;;69.95;8.68;;;1.40;99.90;;;;;;5051655;28;20040;-60
2022/01/12 08:07:22;;;;;;;70.68;9.50;;;1.30;99.90;;;;;;5053762;28;20040;-60
2022/01/12 08:09:48;;;;;;;73.07;9.02;;;1.40;99.90;;;;;;5052368;28;20041;-60
2022/01/12 08:12:14;;;;;;;81.50;9.10;;;1.30;99.90;;;;;;5057296;28;20401;-59
2022/01/12 08:14:39;;;;;;;41.28;7.72;;;1.30;99.90;;;;;;5064248;28;20041;-60
2022/01/12 08:17:05;;;;;;;90.35;8.88;;;1.30;99.90;;;;;;5061555;28;20039;-52
2022/01/12 08:19:35;;;;;;;54.13;7.45;;;1.20;99.90;;;;;;5062828;28;20040;-50
2022/01/12 08:22:01;;;;;;;58.58;7.70;;;1.20;99.90;;;;;;5063762;28;20049;-60
2022/01/12 08:24:27;;;;;;;30.20;6.78;;;1.20;99.90;;;;;;5062893;28;20044;-60
2022/01/12 08:26:53;;;;;;;70.28;8.82;;;1.20;99.90;;;;;;5054641;28;20037;-60
2022/01/12 08:29:19;;;;;;;66.40;8.68;;;1.10;99.90;;;;;;5053335;28;20070;-48
2022/01/12 08:31:46;;;;;;;56.08;8.10;;;1.10;99.90;;;;;;5053273;28;20045;-51
2022/01/12 08:34:12;;;;;;;39.92;8.10;;;1.10;99.90;;;;;;5053335;28;20049;-51
2022/01/12 08:36:40;;;;;;;80.78;9.40;;;1.10;99.90;;;;;;5053553;28;20091;-50
2022/01/12 08:39:09;;;;;;;42.22;7.90;;;1.10;99.90;;;;;;5053033;28;20041;-48
2022/01/12 08:41:36;;;;;;;59.22;7.85;;;1.20;99.90;;;;;;5052077;28;20106;-60
2022/01/12 08:44:06;;;;;;;34.63;6.53;;;1.30;99.90;;;;;;5035209;28;20460;-60
2022/01/12 08:46:32;;;;;;;47.38;7.70;;;1.20;99.90;;;;;;5059506;28;20378;-60
2022/01/12 08:48:57;;;;;;;46.95;6.75;;;1.30;99.90;;;;;;5058483;28;20043;-60
2022/01/12 08:51:23;;;;;;;52.53;7.25;;;1.40;99.90;;;;;;5072847;28;20416;-60
2022/01/12 08:53:49;;;;;;;40.10;7.55;;;1.40;99.90;;;;;;5073111;28;20055;-60
2022/01/12 08:56:14;;;;;;;55.17;6.70;;;1.40;99.90;;;;;;5071581;28;20238;-61
2022/01/12 08:58:41;;;;;;;59.45;8.80;;;1.40;99.90;;;;;;5072640;28;20062;-60
2022/01/12 09:01:09;;;;;;;44.17;7.95;;;1.40;99.90;;;;;;5072713;28;20040;-61
2022/01/12 09:03:35;;;;;;;57.47;8.30;;;1.50;99.90;;;;;;5072561;28;20051;-60
2022/01/12 09:06:03;;;;;;;27.08;6.78;;;1.60;99.90;;;;;;5072383;28;20040;-48
2022/01/12 09:08:29;;;;;;;95.13;9.80;;;1.60;99.90;;;;;;5071473;28;20124;-47
2022/01/12 09:10:55;;;;;;;96.75;9.18;;;1.60;99.90;;;;;;5072624;28;20123;-53
2022/01/12 09:13:21;;;;;;;72.43;8.18;;;1.60;99.90;;;;;;5072187;28;20127;-52
2022/01/12 09:15:46;;;;;;;64.45;7.72;;;1.60;99.90;;;;;;5071583;28;20041;-49
2022/01/12 09:18:12;;;;;;;98.25;9.38;;;1.60;99.90;;;;;;5072072;28;20040;-50
2022/01/12 09:20:38;;;;;;;102.13;9.55;;;1.70;99.90;;;;;;5071819;28;20381;-48
2022/01/12 09:23:05;;;;;;;93.95;10.35;;;1.60;99.90;;;;;;5072022;28;20052;-50
2022/01/12 09:25:35;;;;;;;108.82;10.15;;;1.70;99.90;;;;;;5072222;28;20495;-51
2022/01/12 09:28:02;;;;;;;86.22;9.18;;;1.80;99.90;;;;;;5072147;28;20374;-48
2022/01/12 09:30:29;;;;;;;59.60;9.07;;;1.80;99.90;;;;;;5072500;28;20044;-50
2022/01/12 09:32:55;;;;;;;65.45;7.57;;;1.80;99.90;;;;;;5073043;28;20055;-48
2022/01/12 09:35:21;;;;;;;71.45;7.47;;;1.80;99.90;;;;;;5072190;28;20071;-49
2022/01/12 09:37:47;;;;;;;41.35;6.80;;;1.80;99.90;;;;;;5071326;28;20457;-52
2022/01/12 09:40:13;;;;;;;57.83;7.35;;;1.90;99.90;;;;;;5072119;28;20039;-60
2022/01/12 09:42:41;;;;;;;54.22;6.35;;;1.80;99.90;;;;;;5071540;28;20039;-60
2022/01/12 09:45:08;;;;;;;59.75;7.22;;;1.90;99.90;;;;;;5071619;28;20087;-60
2022/01/12 09:47:34;;;;;;;64.25;7.45;;;1.80;99.90;;;;;;5071469;28;20135;-60
2022/01/12 09:50:01;;;;;;;54.22;7.38;;;1.90;99.90;;;;;;5060956;28;20091;-60
2022/01/12 09:52:26;;;;;;;85.90;8.15;;;1.90;99.90;;;;;;5051308;28;20492;-60
2022/01/12 09:54:52;;;;;;;58.75;6.47;;;1.80;99.90;;;;;;5051464;28;20048;-60
2022/01/12 09:57:18;;;;;;;59.50;7.28;;;2.00;99.90;;;;;;5050133;28;20049;-60
2022/01/12 09:59:43;;;;;;;57.53;6.82;;;2.00;99.90;;;;;;5051370;28;20059;-60
2022/01/12 10:02:17;;;;;;;84.32;7.70;;;2.10;99.90;;;;;;5060747;28;20072;-60
2022/01/12 10:04:43;;;;;;;82.32;9.43;;;2.10;99.90;;;;;;5067116;28;20052;-60
2022/01/12 10:07:10;;;;;;;57.30;7.00;;;2.10;99.90;;;;;;5071315;28;20048;-60
2022/01/12 10:09:43;;;;;;;57.50;6.63;;;2.20;99.90;;;;;;5070046;28;20028;-60
2022/01/12 10:12:15;;;;;;;52.20;6.70;;;2.30;99.90;;;;;;5057896;28;20040;-60
2022/01/12 10:14:45;;;;;;;60.72;6.80;;;2.30;99.90;;;;;;5052150;28;20048;-61
2022/01/12 10:17:13;;;;;;;46.90;5.78;;;2.40;99.90;;;;;;5059659;28;20097;-60
2022/01/12 10:19:40;;;;;;;54.47;6.25;;;2.50;99.90;;;;;;5072683;28;20389;-60
2022/01/12 10:22:10;;;;;;;42.92;5.88;;;2.40;99.90;;;;;;5072445;28;20045;-60
2022/01/12 10:24:41;;;;;;;49.38;6.03;;;2.60;99.90;;;;;;5071867;28;20087;-60
2022/01/12 10:27:14;;;;;;;32.95;5.40;;;2.60;99.90;;;;;;5070932;28;20041;-60
2022/01/12 10:29:41;;;;;;;46.17;5.72;;;2.60;99.90;;;;;;5072039;28;20048;-59
2022/01/12 10:32:10;;;;;;;24.23;5.07;;;2.60;99.90;;;;;;5070668;28;20093;-49
2022/01/12 10:34:38;;;;;;;29.60;5.38;;;2.80;99.90;;;;;;5072278;28;20043;-48
2022/01/12 10:37:07;;;;;;;24.02;5.40;;;2.80;99.90;;;;;;5072076;28;20039;-60
2022/01/12 10:39:37;;;;;;;47.60;6.35;;;2.80;99.90;;;;;;5072357;28;20043;-59
2022/01/12 10:42:06;;;;;;;25.60;6.13;;;2.80;99.90;;;;;;5072248;28;20488;-47
2022/01/12 10:44:41;;;;;;;27.13;5.82;;;3.00;99.90;;;;;;5072087;28;20131;-59
2022/01/12 10:47:19;;;;;;;34.70;6.03;;;3.10;99.90;;;;;;5072368;28;20072;-60
2022/01/12 10:50:05;;;;;;;42.63;6.50;;;3.10;99.90;;;;;;5063391;28;20048;-50
2022/01/12 10:52:37;;;;;;;46.53;6.82;;;3.10;99.90;;;;;;5050717;28;20057;-49
2022/01/12 10:55:09;;;;;;;36.28;6.40;;;3.20;99.90;;;;;;5052038;28;20110;-49
2022/01/12 10:57:40;;;;;;;57.90;7.40;;;3.30;99.90;;;;;;5051933;28;20048;-48
2022/01/12 11:00:10;;;;;;;46.38;7.28;;;3.30;99.90;;;;;;5051418;28;20298;-52
2022/01/12 11:02:39;;;;;;;38.28;6.50;;;3.40;99.90;;;;;;5051874;28;20051;-49
2022/01/12 11:05:07;;;;;;;37.17;7.20;;;3.40;99.90;;;;;;5050022;28;20501;-50
2022/01/12 11:07:33;;;;;;;34.50;6.78;;;3.50;99.90;;;;;;5051477;28;20183;-50
2022/01/12 11:10:01;;;;;;;47.78;7.43;;;3.60;99.90;;;;;;5051754;28;20108;-49
2022/01/12 11:12:28;;;;;;;41.97;7.28;;;3.60;99.90;;;;;;5050740;28;20037;-49
2022/01/12 11:14:55;;;;;;;38.67;6.90;;;3.80;99.90;;;;;;5051225;28;20425;-51
2022/01/12 11:17:21;;;;;;;37.47;7.60;;;3.70;99.90;;;;;;5058668;28;20032;-52
2022/01/12 11:20:04;;;;;;;27.75;7.93;;;3.90;99.90;;;;;;5071791;28;20119;-60
2022/01/12 11:22:51;;;;;;;28.02;7.88;;;3.90;99.90;;;;;;5071747;28;20128;-60
2022/01/12 11:25:32;;;;;;;30.70;8.82;;;4.10;99.90;;;;;;5071735;28;20484;-54
2022/01/12 11:28:11;;;;;;;25.45;8.00;;;4.10;99.90;;;;;;5072065;28;20090;-53
2022/01/12 11:30:42;;;;;;;28.70;8.07;;;4.20;99.90;;;;;;5071859;28;20041;-52
2022/01/12 11:33:10;;;;;;;28.87;8.83;;;4.30;99.90;;;;;;5071890;28;20055;-48
2022/01/12 11:35:40;;;;;;;30.27;9.15;;;4.40;99.90;;;;;;5071745;28;20324;-51
2022/01/12 11:38:08;;;;;;;23.20;9.15;;;4.40;99.90;;;;;;5073253;28;20085;-50
2022/01/12 11:40:43;;;;;;;30.17;9.93;;;4.50;99.90;;;;;;5075883;28;20113;-61
2022/01/12 11:43:25;;;;;;;26.42;9.95;;;4.50;99.90;;;;;;5075576;28;20133;-60
2022/01/12 11:46:01;;;;;;;;;;;4.50;99.90;;;;;;5074889;28;20107;-60
2022/01/12 11:48:32;;;;;;;25.15;9.25;;;4.60;99.90;;;;;;5075364;28;19916;-60
2022/01/12 11:50:58;;;;;;;30.83;10.60;;;4.50;99.90;;;;;;5056652;28;20037;-60
2022/01/12 11:53:23;;;;;;;25.30;10.13;;;4.60;99.90;;;;;;5054056;28;20461;-61
2022/01/12 11:55:49;;;;;;;28.08;9.55;;;4.50;99.90;;;;;;5055538;28;20066;-60
2022/01/12 11:58:17;;;;;;;32.97;10.93;;;4.60;99.90;;;;;;5055415;28;20036;-60
2022/01/12 12:00:44;;;;;;;33.90;13.13;;;4.60;99.90;;;;;;5055374;28;20533;-60
2022/01/12 12:03:19;;;;;;;37.85;10.13;;;4.60;99.90;;;;;;5055184;28;20504;-60
2022/01/12 12:05:45;;;;;;;50.85;13.07;;;4.60;99.90;;;;;;5055416;28;20055;-61
2022/01/12 12:08:10;;;;;;;35.42;11.82;;;4.70;99.90;;;;;;5055328;28;20041;-60
2022/01/12 12:10:40;;;;;;;39.88;11.63;;;4.70;99.90;;;;;;5055254;28;20580;-60
2022/01/12 12:13:07;;;;;;;31.02;11.60;;;4.70;99.90;;;;;;5055120;28;20493;-48
2022/01/12 12:15:33;;;;;;;40.88;12.52;;;4.90;99.90;;;;;;5055142;28;20112;-49
2022/01/12 12:18:04;;;;;;;36.90;12.57;;;4.90;99.90;;;;;;5069194;28;20047;-50
2022/01/12 12:20:31;;;;;;;37.67;12.23;;;4.90;99.90;;;;;;5075246;28;20049;-51
2022/01/12 12:22:57;;;;;;;38.72;12.38;;;5.00;99.90;;;;;;5073508;28;20052;-59
2022/01/12 12:25:25;;;;;;;34.15;11.85;;;4.90;99.90;;;;;;5074865;28;20504;-52
2022/01/12 12:27:57;;;;;;;44.35;14.25;;;5.00;99.90;;;;;;5074953;28;20045;-61
2022/01/12 12:30:25;;;;;;;38.45;11.85;;;5.10;99.90;;;;;;5074552;28;20049;-53
2022/01/12 12:32:55;;;;;;;34.03;12.63;;;5.10;99.90;;;;;;5074906;28;20044;-51
2022/01/12 12:35:24;;;;;;;39.08;13.15;;;5.20;99.90;;;;;;5075024;28;20123;-50
2022/01/12 12:38:02;;;;;;;35.22;13.48;;;5.30;99.90;;;;;;5074890;28;20045;-48
2022/01/12 12:40:29;;;;;;;32.97;11.70;;;5.20;99.90;;;;;;5074695;28;20396;-60
2022/01/12 12:43:06;;;;;;;39.10;13.85;;;5.30;99.90;;;;;;5074498;28;20049;-52
2022/01/12 12:45:54;;;;;;;31.45;12.43;;;5.40;99.90;;;;;;5074741;28;20047;-52
2022/01/12 12:48:25;;;;;;;33.53;12.15;;;5.30;99.90;;;;;;5074734;28;20057;-51
2022/01/12 12:50:59;;;;;;;34.97;12.85;;;5.40;99.90;;;;;;5054489;28;20071;-60
2022/01/12 12:53:34;;;;;;;38.63;12.43;;;5.40;99.90;;;;;;5054610;28;20072;-60
2022/01/12 12:55:59;;;;;;;34.95;13.02;;;5.30;99.90;;;;;;5053040;28;20537;-48
2022/01/12 12:58:27;;;;;;;35.67;12.18;;;5.40;99.90;;;;;;5054417;28;20124;-60
2022/01/12 13:00:53;;;;;;;38.33;12.10;;;5.40;99.90;;;;;;5054735;28;20112;-60
2022/01/12 13:03:18;;;;;;;29.70;11.52;;;5.50;99.90;;;;;;5052849;28;20124;-52
2022/01/12 13:05:44;;;;;;;36.72;12.82;;;5.50;99.90;;;;;;5054254;28;20128;-60
2022/01/12 13:08:11;;;;;;;33.55;12.82;;;5.50;99.90;;;;;;5054074;28;20079;-59
2022/01/12 13:10:37;;;;;;;33.60;12.50;;;5.50;99.90;;;;;;5054051;28;20458;-51
2022/01/12 13:13:05;;;;;;;27.50;12.02;;;5.50;99.90;;;;;;5053812;28;20080;-54
2022/01/12 13:15:43;;;;;;;33.80;11.65;;;5.50;99.90;;;;;;5058200;28;20048;-50
2022/01/12 13:18:22;;;;;;;36.00;12.18;;;5.50;99.90;;;;;;5062500;28;20032;-50
2022/01/12 13:21:12;;;;;;;35.47;11.57;;;5.40;99.90;;;;;;5060676;28;20080;-49
2022/01/12 13:23:43;;;;;;;30.60;11.90;;;5.50;99.90;;;;;;5053698;28;20115;-49
2022/01/12 13:26:13;;;;;;;28.77;11.75;;;5.50;99.90;;;;;;5053832;28;20121;-50
2022/01/12 13:28:42;;;;;;;34.35;11.70;;;5.50;99.90;;;;;;5053674;28;20084;-49
2022/01/12 13:31:11;;;;;;;29.67;12.45;;;5.40;99.90;;;;;;5052610;28;20405;-49
2022/01/12 13:33:40;;;;;;;26.90;11.60;;;5.40;99.90;;;;;;5053638;28;20052;-50
2022/01/12 13:36:16;;;;;;;33.55;12.18;;;5.40;99.90;;;;;;5053642;28;20125;-50
2022/01/12 13:38:46;;;;;;;33.28;11.63;;;5.30;99.90;;;;;;5053496;28;20037;-51
2022/01/12 13:41:17;;;;;;;32.63;12.23;;;5.40;99.90;;;;;;5057745;28;20622;-52
2022/01/12 13:43:48;;;;;;;33.55;12.02;;;5.30;99.90;;;;;;5061196;28;20129;-50
2022/01/12 13:46:17;;;;;;;31.92;13.00;;;5.40;99.90;;;;;;5071175;28;20052;-48
2022/01/12 13:49:37;;;;;;;45.47;13.95;;;5.40;99.90;;;;;;5072921;28;20036;-49
2022/01/12 13:51:39;;;;;;;35.15;12.48;;;5.30;99.90;;;;;;5042488;28;20041;-53
2022/01/12 13:54:08;;;;;;;34.42;12.45;;;5.30;99.90;;;;;;5053332;28;20072;-48
2022/01/12 13:56:51;;;;;;;26.90;12.30;;;5.30;99.90;;;;;;5053307;28;20049;-52
2022/01/12 13:59:18;;;;;;;33.60;12.10;;;5.30;99.90;;;;;;5053016;28;20029;-60
2022/01/12 14:01:45;;;;;;;28.33;11.20;;;5.30;99.90;;;;;;5052965;28;20430;-60
2022/01/12 14:04:21;;;;;;;36.42;12.65;;;5.20;99.90;;;;;;5052433;28;20119;-60
2022/01/12 14:06:51;;;;;;;34.88;12.30;;;5.20;99.90;;;;;;5053005;28;20063;-60